sensor_id;sensor_type;location;lat;lon;timestamp;P1;durP1;ratioP1;P2;durP2;ratioP2
34497;SDS011;20744;50.938;7.286;2023-05-07T00:00:17;12.20;;;3.50;;
34497;SDS011;20744;50.938;7.286;2023-05-07T00:02:45;6.28;;;3.90;;
34497;SDS011;20744;50.938;7.286;2023-05-07T00:05:12;8.40;;;3.60;;
34497;SDS011;20744;50.938;7.286;2023-05-07T00:07:43;3.92;;;3.28;;
34497;SDS011;20744;50.938;7.286;2023-05-07T00:10:12;7.90;;;3.45;;
34497;SDS011;20744;50.938;7.286;2023-05-07T00:12:39;6.95;;;3.30;;
34497;SDS011;20744;50.938;7.286;2023-05-07T00:15:08;5.85;;;3.38;;
34497;SDS011;20744;50.938;7.286;2023-05-07T00:17:35;8.60;;;3.40;;
34497;SDS011;20744;50.938;7.286;2023-05-07T00:20:03;8.07;;;3.95;;
34497;SDS011;20744;50.938;7.286;2023-05-07T00:22:31;5.88;;;3.33;;
34497;SDS011;20744;50.938;7.286;2023-05-07T00:24:58;5.32;;;3.63;;
34497;SDS011;20744;50.938;7.286;2023-05-07T00:27:27;7.50;;;3.92;;
34497;SDS011;20744;50.938;7.286;2023-05-07T00:29:54;4.95;;;3.60;;
34497;SDS011;20744;50.938;7.286;2023-05-07T00:32:21;6.38;;;3.47;;
34497;SDS011;20744;50.938;7.286;2023-05-07T00:34:48;6.47;;;3.40;;
34497;SDS011;20744;50.938;7.286;2023-05-07T00:37:16;9.55;;;3.42;;
34497;SDS011;20744;50.938;7.286;2023-05-07T00:39:43;7.82;;;3.40;;
34497;SDS011;20744;50.938;7.286;2023-05-07T00:42:10;8.07;;;3.10;;
34497;SDS011;20744;50.938;7.286;2023-05-07T00:44:39;5.45;;;3.25;;
34497;SDS011;20744;50.938;7.286;2023-05-07T00:47:06;7.70;;;3.60;;
34497;SDS011;20744;50.938;7.286;2023-05-07T00:49:35;6.55;;;3.30;;
34497;SDS011;20744;50.938;7.286;2023-05-07T00:52:05;6.20;;;3.35;;
34497;SDS011;20744;50.938;7.286;2023-05-07T00:54:33;9.85;;;3.58;;
34497;SDS011;20744;50.938;7.286;2023-05-07T00:57:01;5.65;;;3.60;;
34497;SDS011;20744;50.938;7.286;2023-05-07T00:59:29;4.90;;;3.22;;
34497;SDS011;20744;50.938;7.286;2023-05-07T01:01:58;6.80;;;3.33;;
34497;SDS011;20744;50.938;7.286;2023-05-07T01:04:25;7.70;;;3.72;;
34497;SDS011;20744;50.938;7.286;2023-05-07T01:06:53;8.15;;;3.75;;
34497;SDS011;20744;50.938;7.286;2023-05-07T01:09:22;8.63;;;3.53;;
34497;SDS011;20744;50.938;7.286;2023-05-07T01:11:54;7.00;;;4.00;;
34497;SDS011;20744;50.938;7.286;2023-05-07T01:14:22;8.18;;;4.05;;
34497;SDS011;20744;50.938;7.286;2023-05-07T01:16:50;6.32;;;4.13;;
34497;SDS011;20744;50.938;7.286;2023-05-07T01:19:19;8.73;;;4.18;;
34497;SDS011;20744;50.938;7.286;2023-05-07T01:21:49;8.23;;;3.50;;
34497;SDS011;20744;50.938;7.286;2023-05-07T01:24:19;5.55;;;3.53;;
34497;SDS011;20744;50.938;7.286;2023-05-07T01:26:46;6.38;;;3.65;;
34497;SDS011;20744;50.938;7.286;2023-05-07T01:29:13;8.50;;;3.75;;
34497;SDS011;20744;50.938;7.286;2023-05-07T01:31:41;6.35;;;3.58;;
34497;SDS011;20744;50.938;7.286;2023-05-07T01:34:08;6.43;;;3.40;;
34497;SDS011;20744;50.938;7.286;2023-05-07T01:36:38;14.25;;;4.25;;
34497;SDS011;20744;50.938;7.286;2023-05-07T01:39:06;11.88;;;4.10;;
34497;SDS011;20744;50.938;7.286;2023-05-07T01:41:35;13.38;;;4.30;;
34497;SDS011;20744;50.938;7.286;2023-05-07T01:44:02;8.02;;;4.60;;
34497;SDS011;20744;50.938;7.286;2023-05-07T01:46:30;8.32;;;4.65;;
34497;SDS011;20744;50.938;7.286;2023-05-07T01:48:58;8.52;;;4.70;;
34497;SDS011;20744;50.938;7.286;2023-05-07T01:51:27;9.98;;;4.82;;
34497;SDS011;20744;50.938;7.286;2023-05-07T01:53:57;7.03;;;4.00;;
34497;SDS011;20744;50.938;7.286;2023-05-07T01:56:25;8.10;;;4.60;;
34497;SDS011;20744;50.938;7.286;2023-05-07T01:58:54;7.00;;;4.38;;
34497;SDS011;20744;50.938;7.286;2023-05-07T02:01:21;8.00;;;4.47;;
34497;SDS011;20744;50.938;7.286;2023-05-07T02:03:48;6.35;;;4.05;;
34497;SDS011;20744;50.938;7.286;2023-05-07T02:06:15;7.85;;;4.00;;
34497;SDS011;20744;50.938;7.286;2023-05-07T02:08:43;6.90;;;4.03;;
34497;SDS011;20744;50.938;7.286;2023-05-07T02:11:12;5.93;;;3.97;;
34497;SDS011;20744;50.938;7.286;2023-05-07T02:13:39;10.57;;;3.75;;
34497;SDS011;20744;50.938;7.286;2023-05-07T02:16:07;7.90;;;3.30;;
34497;SDS011;20744;50.938;7.286;2023-05-07T02:18:35;11.30;;;3.53;;
34497;SDS011;20744;50.938;7.286;2023-05-07T02:21:03;12.57;;;3.70;;
34497;SDS011;20744;50.938;7.286;2023-05-07T02:23:32;8.55;;;3.47;;
34497;SDS011;20744;50.938;7.286;2023-05-07T02:25:59;9.80;;;2.97;;
34497;SDS011;20744;50.938;7.286;2023-05-07T02:28:26;12.07;;;3.22;;
34497;SDS011;20744;50.938;7.286;2023-05-07T02:30:53;4.55;;;2.88;;
34497;SDS011;20744;50.938;7.286;2023-05-07T02:33:24;8.98;;;2.80;;
34497;SDS011;20744;50.938;7.286;2023-05-07T02:35:52;8.70;;;3.05;;
34497;SDS011;20744;50.938;7.286;2023-05-07T02:38:19;4.22;;;2.60;;
34497;SDS011;20744;50.938;7.286;2023-05-07T02:40:46;13.32;;;3.08;;
34497;SDS011;20744;50.938;7.286;2023-05-07T02:43:13;9.20;;;2.90;;
34497;SDS011;20744;50.938;7.286;2023-05-07T02:45:40;8.18;;;3.67;;
34497;SDS011;20744;50.938;7.286;2023-05-07T02:48:08;8.25;;;3.30;;
34497;SDS011;20744;50.938;7.286;2023-05-07T02:50:37;4.32;;;3.28;;
34497;SDS011;20744;50.938;7.286;2023-05-07T02:53:04;10.05;;;3.35;;
34497;SDS011;20744;50.938;7.286;2023-05-07T02:55:31;5.72;;;3.15;;
34497;SDS011;20744;50.938;7.286;2023-05-07T02:57:58;7.22;;;3.60;;
34497;SDS011;20744;50.938;7.286;2023-05-07T03:00:26;6.20;;;3.65;;
34497;SDS011;20744;50.938;7.286;2023-05-07T03:02:53;10.20;;;3.50;;
34497;SDS011;20744;50.938;7.286;2023-05-07T03:05:21;8.85;;;3.40;;
34497;SDS011;20744;50.938;7.286;2023-05-07T03:07:49;9.02;;;3.53;;
34497;SDS011;20744;50.938;7.286;2023-05-07T03:10:16;8.20;;;2.88;;
34497;SDS011;20744;50.938;7.286;2023-05-07T03:12:44;8.25;;;3.13;;
34497;SDS011;20744;50.938;7.286;2023-05-07T03:15:11;7.75;;;2.90;;
34497;SDS011;20744;50.938;7.286;2023-05-07T03:17:38;7.65;;;3.35;;
34497;SDS011;20744;50.938;7.286;2023-05-07T03:20:06;5.85;;;2.80;;
34497;SDS011;20744;50.938;7.286;2023-05-07T03:22:34;10.45;;;3.17;;
34497;SDS011;20744;50.938;7.286;2023-05-07T03:25:03;7.13;;;3.00;;
34497;SDS011;20744;50.938;7.286;2023-05-07T03:27:30;10.43;;;2.90;;
34497;SDS011;20744;50.938;7.286;2023-05-07T03:29:57;7.05;;;3.00;;
34497;SDS011;20744;50.938;7.286;2023-05-07T03:32:25;6.47;;;2.90;;
34497;SDS011;20744;50.938;7.286;2023-05-07T03:34:52;5.55;;;2.63;;
34497;SDS011;20744;50.938;7.286;2023-05-07T03:37:19;9.05;;;3.15;;
34497;SDS011;20744;50.938;7.286;2023-05-07T03:39:46;9.07;;;3.03;;
34497;SDS011;20744;50.938;7.286;2023-05-07T03:42:15;5.28;;;2.42;;
34497;SDS011;20744;50.938;7.286;2023-05-07T03:44:43;5.72;;;2.40;;
34497;SDS011;20744;50.938;7.286;2023-05-07T03:47:10;4.65;;;2.38;;
34497;SDS011;20744;50.938;7.286;2023-05-07T03:49:38;9.20;;;2.40;;
34497;SDS011;20744;50.938;7.286;2023-05-07T03:52:05;3.75;;;2.20;;
34497;SDS011;20744;50.938;7.286;2023-05-07T03:54:32;3.92;;;2.50;;
34497;SDS011;20744;50.938;7.286;2023-05-07T03:57:00;9.40;;;2.63;;
34497;SDS011;20744;50.938;7.286;2023-05-07T03:59:28;6.63;;;2.50;;
34497;SDS011;20744;50.938;7.286;2023-05-07T04:01:55;10.60;;;2.55;;
34497;SDS011;20744;50.938;7.286;2023-05-07T04:04:23;4.93;;;2.28;;
34497;SDS011;20744;50.938;7.286;2023-05-07T04:06:50;6.53;;;2.70;;
34497;SDS011;20744;50.938;7.286;2023-05-07T04:09:18;7.55;;;2.60;;
34497;SDS011;20744;50.938;7.286;2023-05-07T04:11:45;7.75;;;2.80;;
34497;SDS011;20744;50.938;7.286;2023-05-07T04:14:12;9.38;;;2.30;;
34497;SDS011;20744;50.938;7.286;2023-05-07T04:16:41;7.35;;;2.35;;
34497;SDS011;20744;50.938;7.286;2023-05-07T04:19:08;11.00;;;2.58;;
34497;SDS011;20744;50.938;7.286;2023-05-07T04:21:35;3.33;;;2.45;;
34497;SDS011;20744;50.938;7.286;2023-05-07T04:24:02;6.65;;;2.58;;
34497;SDS011;20744;50.938;7.286;2023-05-07T04:26:30;4.43;;;2.70;;
34497;SDS011;20744;50.938;7.286;2023-05-07T04:28:57;6.00;;;2.88;;
34497;SDS011;20744;50.938;7.286;2023-05-07T04:31:25;7.50;;;3.22;;
34497;SDS011;20744;50.938;7.286;2023-05-07T04:33:53;4.82;;;2.95;;
34497;SDS011;20744;50.938;7.286;2023-05-07T04:36:21;4.57;;;2.70;;
34497;SDS011;20744;50.938;7.286;2023-05-07T04:38:49;5.15;;;2.70;;
34497;SDS011;20744;50.938;7.286;2023-05-07T04:41:16;12.63;;;2.53;;
34497;SDS011;20744;50.938;7.286;2023-05-07T04:43:43;5.70;;;2.70;;
34497;SDS011;20744;50.938;7.286;2023-05-07T04:46:10;4.60;;;2.72;;
34497;SDS011;20744;50.938;7.286;2023-05-07T04:48:37;9.07;;;2.65;;
34497;SDS011;20744;50.938;7.286;2023-05-07T04:51:06;4.22;;;2.70;;
34497;SDS011;20744;50.938;7.286;2023-05-07T04:53:33;5.53;;;2.83;;
34497;SDS011;20744;50.938;7.286;2023-05-07T04:56:00;10.00;;;3.20;;
34497;SDS011;20744;50.938;7.286;2023-05-07T04:58:28;7.60;;;2.53;;
34497;SDS011;20744;50.938;7.286;2023-05-07T05:00:56;10.55;;;2.92;;
34497;SDS011;20744;50.938;7.286;2023-05-07T05:03:23;6.18;;;2.92;;
34497;SDS011;20744;50.938;7.286;2023-05-07T05:05:51;10.65;;;2.75;;
34497;SDS011;20744;50.938;7.286;2023-05-07T05:08:19;13.57;;;3.40;;
34497;SDS011;20744;50.938;7.286;2023-05-07T05:10:46;6.30;;;3.10;;
34497;SDS011;20744;50.938;7.286;2023-05-07T05:13:14;11.57;;;2.97;;
34497;SDS011;20744;50.938;7.286;2023-05-07T05:15:42;13.35;;;2.50;;
34497;SDS011;20744;50.938;7.286;2023-05-07T05:18:10;6.95;;;2.78;;
34497;SDS011;20744;50.938;7.286;2023-05-07T05:20:37;8.30;;;2.63;;
34497;SDS011;20744;50.938;7.286;2023-05-07T05:23:05;5.07;;;2.60;;
34497;SDS011;20744;50.938;7.286;2023-05-07T05:25:33;6.45;;;2.63;;
34497;SDS011;20744;50.938;7.286;2023-05-07T05:28:02;3.53;;;2.40;;
34497;SDS011;20744;50.938;7.286;2023-05-07T05:30:29;5.30;;;2.10;;
34497;SDS011;20744;50.938;7.286;2023-05-07T05:32:56;6.10;;;2.30;;
34497;SDS011;20744;50.938;7.286;2023-05-07T05:35:24;6.82;;;1.95;;
34497;SDS011;20744;50.938;7.286;2023-05-07T05:37:51;2.83;;;2.00;;
34497;SDS011;20744;50.938;7.286;2023-05-07T05:40:18;4.95;;;2.13;;
34497;SDS011;20744;50.938;7.286;2023-05-07T05:42:47;3.80;;;2.13;;
34497;SDS011;20744;50.938;7.286;2023-05-07T05:45:14;8.63;;;2.60;;
34497;SDS011;20744;50.938;7.286;2023-05-07T05:47:42;7.93;;;2.40;;
34497;SDS011;20744;50.938;7.286;2023-05-07T05:50:09;5.63;;;2.33;;
34497;SDS011;20744;50.938;7.286;2023-05-07T05:52:37;4.82;;;2.05;;
34497;SDS011;20744;50.938;7.286;2023-05-07T05:55:06;5.93;;;2.13;;
34497;SDS011;20744;50.938;7.286;2023-05-07T05:57:33;4.53;;;2.15;;
34497;SDS011;20744;50.938;7.286;2023-05-07T06:00:02;4.50;;;2.00;;
34497;SDS011;20744;50.938;7.286;2023-05-07T06:02:30;6.78;;;2.08;;
34497;SDS011;20744;50.938;7.286;2023-05-07T06:04:57;5.60;;;2.17;;
34497;SDS011;20744;50.938;7.286;2023-05-07T06:07:24;6.57;;;2.22;;
34497;SDS011;20744;50.938;7.286;2023-05-07T06:09:52;5.28;;;2.00;;
34497;SDS011;20744;50.938;7.286;2023-05-07T06:12:19;4.38;;;2.10;;
34497;SDS011;20744;50.938;7.286;2023-05-07T06:14:46;2.80;;;2.10;;
34497;SDS011;20744;50.938;7.286;2023-05-07T06:17:15;2.83;;;2.00;;
34497;SDS011;20744;50.938;7.286;2023-05-07T06:19:42;3.72;;;1.90;;
34497;SDS011;20744;50.938;7.286;2023-05-07T06:22:09;6.90;;;1.85;;
34497;SDS011;20744;50.938;7.286;2023-05-07T06:24:36;5.25;;;2.10;;
34497;SDS011;20744;50.938;7.286;2023-05-07T06:27:04;3.60;;;2.22;;
34497;SDS011;20744;50.938;7.286;2023-05-07T06:29:31;6.18;;;2.10;;
34497;SDS011;20744;50.938;7.286;2023-05-07T06:32:05;4.32;;;2.03;;
34497;SDS011;20744;50.938;7.286;2023-05-07T06:34:34;4.50;;;1.83;;
34497;SDS011;20744;50.938;7.286;2023-05-07T06:37:02;8.63;;;2.38;;
34497;SDS011;20744;50.938;7.286;2023-05-07T06:39:29;7.82;;;2.17;;
34497;SDS011;20744;50.938;7.286;2023-05-07T06:41:56;3.47;;;1.77;;
34497;SDS011;20744;50.938;7.286;2023-05-07T06:44:24;7.85;;;2.03;;
34497;SDS011;20744;50.938;7.286;2023-05-07T06:46:51;4.88;;;1.95;;
34497;SDS011;20744;50.938;7.286;2023-05-07T06:49:18;3.13;;;1.75;;
34497;SDS011;20744;50.938;7.286;2023-05-07T06:51:47;3.55;;;1.85;;
34497;SDS011;20744;50.938;7.286;2023-05-07T06:54:14;5.82;;;1.77;;
34497;SDS011;20744;50.938;7.286;2023-05-07T06:56:42;4.18;;;1.92;;
34497;SDS011;20744;50.938;7.286;2023-05-07T06:59:09;9.00;;;2.03;;
34497;SDS011;20744;50.938;7.286;2023-05-07T07:01:39;7.35;;;2.20;;
34497;SDS011;20744;50.938;7.286;2023-05-07T07:04:06;3.67;;;1.73;;
34497;SDS011;20744;50.938;7.286;2023-05-07T07:06:33;3.78;;;2.10;;
34497;SDS011;20744;50.938;7.286;2023-05-07T07:09:05;3.70;;;1.92;;
34497;SDS011;20744;50.938;7.286;2023-05-07T07:11:32;4.50;;;1.60;;
34497;SDS011;20744;50.938;7.286;2023-05-07T07:13:59;4.50;;;1.58;;
34497;SDS011;20744;50.938;7.286;2023-05-07T07:16:27;3.42;;;1.55;;
34497;SDS011;20744;50.938;7.286;2023-05-07T07:18:54;3.80;;;1.60;;
34497;SDS011;20744;50.938;7.286;2023-05-07T07:21:21;2.65;;;1.55;;
34497;SDS011;20744;50.938;7.286;2023-05-07T07:23:48;4.30;;;1.80;;
34497;SDS011;20744;50.938;7.286;2023-05-07T07:26:17;3.28;;;1.70;;
34497;SDS011;20744;50.938;7.286;2023-05-07T07:28:44;3.35;;;1.60;;
34497;SDS011;20744;50.938;7.286;2023-05-07T07:31:12;2.55;;;1.33;;
34497;SDS011;20744;50.938;7.286;2023-05-07T07:33:39;4.63;;;1.67;;
34497;SDS011;20744;50.938;7.286;2023-05-07T07:36:06;4.38;;;1.30;;
34497;SDS011;20744;50.938;7.286;2023-05-07T07:38:34;5.20;;;1.45;;
34497;SDS011;20744;50.938;7.286;2023-05-07T07:41:01;4.43;;;1.80;;
34497;SDS011;20744;50.938;7.286;2023-05-07T07:43:30;4.75;;;1.30;;
34497;SDS011;20744;50.938;7.286;2023-05-07T07:45:57;4.13;;;1.23;;
34497;SDS011;20744;50.938;7.286;2023-05-07T07:48:24;3.83;;;1.58;;
34497;SDS011;20744;50.938;7.286;2023-05-07T07:50:51;1.92;;;1.23;;
34497;SDS011;20744;50.938;7.286;2023-05-07T07:53:19;9.05;;;1.60;;
34497;SDS011;20744;50.938;7.286;2023-05-07T07:55:46;3.83;;;1.40;;
34497;SDS011;20744;50.938;7.286;2023-05-07T07:58:13;2.13;;;1.10;;
34497;SDS011;20744;50.938;7.286;2023-05-07T08:00:42;3.88;;;1.30;;
34497;SDS011;20744;50.938;7.286;2023-05-07T08:03:09;5.47;;;1.33;;
34497;SDS011;20744;50.938;7.286;2023-05-07T08:05:36;4.85;;;1.27;;
34497;SDS011;20744;50.938;7.286;2023-05-07T08:08:04;2.47;;;1.45;;
34497;SDS011;20744;50.938;7.286;2023-05-07T08:10:32;2.60;;;1.08;;
34497;SDS011;20744;50.938;7.286;2023-05-07T08:13:05;5.75;;;1.20;;
34497;SDS011;20744;50.938;7.286;2023-05-07T08:15:32;13.32;;;1.75;;
34497;SDS011;20744;50.938;7.286;2023-05-07T08:18:01;3.00;;;1.20;;
34497;SDS011;20744;50.938;7.286;2023-05-07T08:20:28;7.07;;;1.40;;
34497;SDS011;20744;50.938;7.286;2023-05-07T08:22:56;6.30;;;1.42;;
34497;SDS011;20744;50.938;7.286;2023-05-07T08:25:23;5.72;;;1.65;;
34497;SDS011;20744;50.938;7.286;2023-05-07T08:27:50;3.38;;;1.30;;
34497;SDS011;20744;50.938;7.286;2023-05-07T08:30:17;2.67;;;1.13;;
34497;SDS011;20744;50.938;7.286;2023-05-07T08:32:45;3.72;;;1.15;;
34497;SDS011;20744;50.938;7.286;2023-05-07T08:35:13;3.50;;;1.02;;
34497;SDS011;20744;50.938;7.286;2023-05-07T08:37:40;4.50;;;1.20;;
34497;SDS011;20744;50.938;7.286;2023-05-07T08:40:09;2.42;;;1.05;;
34497;SDS011;20744;50.938;7.286;2023-05-07T08:42:36;5.50;;;1.27;;
34497;SDS011;20744;50.938;7.286;2023-05-07T08:45:04;3.08;;;1.17;;
34497;SDS011;20744;50.938;7.286;2023-05-07T08:47:34;3.08;;;1.25;;
34497;SDS011;20744;50.938;7.286;2023-05-07T08:50:05;5.80;;;1.27;;
34497;SDS011;20744;50.938;7.286;2023-05-07T08:52:34;3.33;;;1.02;;
34497;SDS011;20744;50.938;7.286;2023-05-07T08:55:02;8.60;;;1.13;;
34497;SDS011;20744;50.938;7.286;2023-05-07T08:57:29;1.50;;;0.98;;
34497;SDS011;20744;50.938;7.286;2023-05-07T08:59:56;3.65;;;1.38;;
34497;SDS011;20744;50.938;7.286;2023-05-07T09:02:24;5.82;;;1.20;;
34497;SDS011;20744;50.938;7.286;2023-05-07T09:04:51;4.10;;;1.20;;
34497;SDS011;20744;50.938;7.286;2023-05-07T09:07:19;2.88;;;1.30;;
34497;SDS011;20744;50.938;7.286;2023-05-07T09:09:47;6.15;;;1.10;;
34497;SDS011;20744;50.938;7.286;2023-05-07T09:12:15;2.13;;;1.25;;
34497;SDS011;20744;50.938;7.286;2023-05-07T09:14:42;1.60;;;0.93;;
34497;SDS011;20744;50.938;7.286;2023-05-07T09:17:09;4.50;;;1.20;;
34497;SDS011;20744;50.938;7.286;2023-05-07T09:19:36;5.75;;;1.40;;
34497;SDS011;20744;50.938;7.286;2023-05-07T09:22:04;5.63;;;1.35;;
34497;SDS011;20744;50.938;7.286;2023-05-07T09:24:32;3.25;;;1.40;;
34497;SDS011;20744;50.938;7.286;2023-05-07T09:27:04;3.13;;;1.05;;
34497;SDS011;20744;50.938;7.286;2023-05-07T09:29:31;3.55;;;1.25;;
34497;SDS011;20744;50.938;7.286;2023-05-07T09:32:00;1.88;;;1.13;;
34497;SDS011;20744;50.938;7.286;2023-05-07T09:34:28;4.30;;;1.30;;
34497;SDS011;20744;50.938;7.286;2023-05-07T09:36:55;3.00;;;1.38;;
34497;SDS011;20744;50.938;7.286;2023-05-07T09:39:23;2.28;;;1.20;;
34497;SDS011;20744;50.938;7.286;2023-05-07T09:41:50;4.18;;;1.30;;
34497;SDS011;20744;50.938;7.286;2023-05-07T09:44:21;2.30;;;1.25;;
34497;SDS011;20744;50.938;7.286;2023-05-07T09:46:51;3.65;;;1.20;;
34497;SDS011;20744;50.938;7.286;2023-05-07T09:49:21;2.53;;;1.10;;
34497;SDS011;20744;50.938;7.286;2023-05-07T09:51:49;2.78;;;1.20;;
34497;SDS011;20744;50.938;7.286;2023-05-07T09:54:17;2.33;;;0.90;;
34497;SDS011;20744;50.938;7.286;2023-05-07T09:56:44;5.13;;;1.05;;
34497;SDS011;20744;50.938;7.286;2023-05-07T09:59:12;3.13;;;1.17;;
34497;SDS011;20744;50.938;7.286;2023-05-07T10:01:42;2.28;;;1.10;;
34497;SDS011;20744;50.938;7.286;2023-05-07T10:04:10;2.10;;;1.10;;
34497;SDS011;20744;50.938;7.286;2023-05-07T10:06:37;1.98;;;1.13;;
34497;SDS011;20744;50.938;7.286;2023-05-07T10:09:05;8.57;;;1.48;;
34497;SDS011;20744;50.938;7.286;2023-05-07T10:11:34;2.83;;;1.27;;
34497;SDS011;20744;50.938;7.286;2023-05-07T10:14:02;3.75;;;1.30;;
34497;SDS011;20744;50.938;7.286;2023-05-07T10:16:31;3.53;;;1.40;;
34497;SDS011;20744;50.938;7.286;2023-05-07T10:19:02;3.42;;;0.93;;
34497;SDS011;20744;50.938;7.286;2023-05-07T10:21:30;4.22;;;1.25;;
34497;SDS011;20744;50.938;7.286;2023-05-07T10:23:58;4.45;;;1.20;;
34497;SDS011;20744;50.938;7.286;2023-05-07T10:26:25;4.18;;;1.00;;
34497;SDS011;20744;50.938;7.286;2023-05-07T10:28:54;2.30;;;1.33;;
34497;SDS011;20744;50.938;7.286;2023-05-07T10:31:29;1.88;;;1.00;;
34497;SDS011;20744;50.938;7.286;2023-05-07T10:34:02;3.80;;;1.50;;
34497;SDS011;20744;50.938;7.286;2023-05-07T10:36:33;3.33;;;1.30;;
34497;SDS011;20744;50.938;7.286;2023-05-07T10:39:01;5.82;;;1.35;;
34497;SDS011;20744;50.938;7.286;2023-05-07T10:41:28;2.80;;;1.25;;
34497;SDS011;20744;50.938;7.286;2023-05-07T10:43:55;3.20;;;1.20;;
34497;SDS011;20744;50.938;7.286;2023-05-07T10:46:26;3.22;;;1.13;;
34497;SDS011;20744;50.938;7.286;2023-05-07T10:49:10;2.50;;;1.02;;
34497;SDS011;20744;50.938;7.286;2023-05-07T10:51:37;1.92;;;1.00;;
34497;SDS011;20744;50.938;7.286;2023-05-07T10:54:23;2.67;;;1.08;;
34497;SDS011;20744;50.938;7.286;2023-05-07T10:59:30;2.45;;;0.90;;
34497;SDS011;20744;50.938;7.286;2023-05-07T11:01:58;2.58;;;1.02;;
34497;SDS011;20744;50.938;7.286;2023-05-07T11:04:29;2.72;;;0.90;;
34497;SDS011;20744;50.938;7.286;2023-05-07T11:07:21;2.42;;;1.00;;
34497;SDS011;20744;50.938;7.286;2023-05-07T11:09:54;7.13;;;0.90;;
34497;SDS011;20744;50.938;7.286;2023-05-07T11:15:06;3.75;;;1.08;;
34497;SDS011;20744;50.938;7.286;2023-05-07T11:17:33;2.80;;;1.00;;
34497;SDS011;20744;50.938;7.286;2023-05-07T11:20:02;3.08;;;1.23;;
34497;SDS011;20744;50.938;7.286;2023-05-07T11:22:36;3.85;;;1.00;;
34497;SDS011;20744;50.938;7.286;2023-05-07T11:25:06;3.25;;;1.15;;
34497;SDS011;20744;50.938;7.286;2023-05-07T11:27:33;3.08;;;1.30;;
34497;SDS011;20744;50.938;7.286;2023-05-07T11:30:00;1.77;;;1.00;;
34497;SDS011;20744;50.938;7.286;2023-05-07T11:32:28;3.92;;;1.02;;
34497;SDS011;20744;50.938;7.286;2023-05-07T11:34:56;4.35;;;1.13;;
34497;SDS011;20744;50.938;7.286;2023-05-07T11:37:25;3.28;;;1.08;;
34497;SDS011;20744;50.938;7.286;2023-05-07T11:40:02;4.68;;;1.10;;
34497;SDS011;20744;50.938;7.286;2023-05-07T11:42:31;2.38;;;1.20;;
34497;SDS011;20744;50.938;7.286;2023-05-07T11:44:58;2.55;;;1.00;;
34497;SDS011;20744;50.938;7.286;2023-05-07T11:47:25;3.33;;;1.20;;
34497;SDS011;20744;50.938;7.286;2023-05-07T11:49:54;5.60;;;1.45;;
34497;SDS011;20744;50.938;7.286;2023-05-07T11:52:22;2.75;;;1.20;;
34497;SDS011;20744;50.938;7.286;2023-05-07T11:54:51;2.67;;;1.08;;
34497;SDS011;20744;50.938;7.286;2023-05-07T11:57:19;1.45;;;1.10;;
34497;SDS011;20744;50.938;7.286;2023-05-07T11:59:46;3.42;;;1.35;;
34497;SDS011;20744;50.938;7.286;2023-05-07T12:02:13;5.18;;;1.30;;
34497;SDS011;20744;50.938;7.286;2023-05-07T12:04:41;4.32;;;1.00;;
34497;SDS011;20744;50.938;7.286;2023-05-07T12:07:11;3.72;;;1.15;;
34497;SDS011;20744;50.938;7.286;2023-05-07T12:09:38;2.63;;;1.00;;
34497;SDS011;20744;50.938;7.286;2023-05-07T12:12:07;2.78;;;1.13;;
34497;SDS011;20744;50.938;7.286;2023-05-07T12:14:37;3.67;;;1.35;;
34497;SDS011;20744;50.938;7.286;2023-05-07T12:17:05;2.67;;;1.20;;
34497;SDS011;20744;50.938;7.286;2023-05-07T12:19:32;2.92;;;1.10;;
34497;SDS011;20744;50.938;7.286;2023-05-07T12:22:01;3.17;;;1.15;;
34497;SDS011;20744;50.938;7.286;2023-05-07T12:24:30;1.45;;;0.90;;
34497;SDS011;20744;50.938;7.286;2023-05-07T12:27:10;4.70;;;1.10;;
34497;SDS011;20744;50.938;7.286;2023-05-07T12:29:37;3.35;;;1.15;;
34497;SDS011;20744;50.938;7.286;2023-05-07T12:32:06;3.15;;;1.20;;
34497;SDS011;20744;50.938;7.286;2023-05-07T12:34:33;3.13;;;1.33;;
34497;SDS011;20744;50.938;7.286;2023-05-07T12:37:01;3.05;;;1.00;;
34497;SDS011;20744;50.938;7.286;2023-05-07T12:39:29;1.42;;;0.90;;
34497;SDS011;20744;50.938;7.286;2023-05-07T12:41:57;2.95;;;0.93;;
34497;SDS011;20744;50.938;7.286;2023-05-07T12:44:31;4.25;;;1.17;;
34497;SDS011;20744;50.938;7.286;2023-05-07T12:47:01;3.58;;;1.00;;
34497;SDS011;20744;50.938;7.286;2023-05-07T12:49:28;3.25;;;1.13;;
34497;SDS011;20744;50.938;7.286;2023-05-07T12:51:56;2.03;;;1.20;;
34497;SDS011;20744;50.938;7.286;2023-05-07T12:54:29;4.90;;;1.30;;
34497;SDS011;20744;50.938;7.286;2023-05-07T12:57:00;3.15;;;1.17;;
34497;SDS011;20744;50.938;7.286;2023-05-07T12:59:32;4.85;;;1.50;;
34497;SDS011;20744;50.938;7.286;2023-05-07T13:01:59;3.40;;;0.98;;
34497;SDS011;20744;50.938;7.286;2023-05-07T13:04:26;3.00;;;1.30;;
34497;SDS011;20744;50.938;7.286;2023-05-07T13:06:53;5.07;;;1.15;;
34497;SDS011;20744;50.938;7.286;2023-05-07T13:09:21;3.85;;;1.40;;
34497;SDS011;20744;50.938;7.286;2023-05-07T13:11:48;3.95;;;1.17;;
34497;SDS011;20744;50.938;7.286;2023-05-07T13:14:15;1.70;;;1.02;;
34497;SDS011;20744;50.938;7.286;2023-05-07T13:16:44;2.67;;;0.93;;
34497;SDS011;20744;50.938;7.286;2023-05-07T13:19:11;3.72;;;1.15;;
34497;SDS011;20744;50.938;7.286;2023-05-07T13:21:39;1.80;;;1.00;;
34497;SDS011;20744;50.938;7.286;2023-05-07T13:24:06;2.60;;;1.10;;
34497;SDS011;20744;50.938;7.286;2023-05-07T13:26:34;3.15;;;1.10;;
34497;SDS011;20744;50.938;7.286;2023-05-07T13:29:01;2.13;;;1.15;;
34497;SDS011;20744;50.938;7.286;2023-05-07T13:31:29;2.15;;;0.88;;
34497;SDS011;20744;50.938;7.286;2023-05-07T13:33:57;5.32;;;1.20;;
34497;SDS011;20744;50.938;7.286;2023-05-07T13:36:24;3.60;;;1.20;;
34497;SDS011;20744;50.938;7.286;2023-05-07T13:38:52;3.00;;;1.00;;
34497;SDS011;20744;50.938;7.286;2023-05-07T13:41:19;3.65;;;1.00;;
34497;SDS011;20744;50.938;7.286;2023-05-07T13:43:46;2.78;;;1.17;;
34497;SDS011;20744;50.938;7.286;2023-05-07T13:46:13;2.55;;;1.20;;
34497;SDS011;20744;50.938;7.286;2023-05-07T13:48:41;1.98;;;1.00;;
34497;SDS011;20744;50.938;7.286;2023-05-07T13:51:10;1.92;;;1.20;;
34497;SDS011;20744;50.938;7.286;2023-05-07T13:53:37;2.55;;;1.20;;
34497;SDS011;20744;50.938;7.286;2023-05-07T13:56:04;2.28;;;1.00;;
34497;SDS011;20744;50.938;7.286;2023-05-07T13:58:32;3.17;;;1.10;;
34497;SDS011;20744;50.938;7.286;2023-05-07T14:01:00;2.35;;;1.30;;
34497;SDS011;20744;50.938;7.286;2023-05-07T14:03:27;2.15;;;1.10;;
34497;SDS011;20744;50.938;7.286;2023-05-07T14:05:56;4.47;;;1.13;;
34497;SDS011;20744;50.938;7.286;2023-05-07T14:08:26;3.00;;;1.10;;
34497;SDS011;20744;50.938;7.286;2023-05-07T14:10:53;2.92;;;1.10;;
34497;SDS011;20744;50.938;7.286;2023-05-07T14:13:20;1.38;;;1.00;;
34497;SDS011;20744;50.938;7.286;2023-05-07T14:15:48;1.90;;;1.20;;
34497;SDS011;20744;50.938;7.286;2023-05-07T14:18:15;4.13;;;1.23;;
34497;SDS011;20744;50.938;7.286;2023-05-07T14:20:42;2.50;;;1.20;;
34497;SDS011;20744;50.938;7.286;2023-05-07T14:23:11;2.95;;;1.17;;
34497;SDS011;20744;50.938;7.286;2023-05-07T14:25:40;6.30;;;1.20;;
34497;SDS011;20744;50.938;7.286;2023-05-07T14:28:08;4.13;;;1.13;;
34497;SDS011;20744;50.938;7.286;2023-05-07T14:30:35;2.10;;;1.40;;
34497;SDS011;20744;50.938;7.286;2023-05-07T14:33:03;4.45;;;1.10;;
34497;SDS011;20744;50.938;7.286;2023-05-07T14:35:30;2.38;;;1.30;;
34497;SDS011;20744;50.938;7.286;2023-05-07T14:37:57;9.13;;;1.63;;
34497;SDS011;20744;50.938;7.286;2023-05-07T14:40:25;5.97;;;1.65;;
34497;SDS011;20744;50.938;7.286;2023-05-07T14:42:53;3.95;;;1.65;;
34497;SDS011;20744;50.938;7.286;2023-05-07T14:45:22;3.78;;;1.60;;
34497;SDS011;20744;50.938;7.286;2023-05-07T14:47:49;11.30;;;1.65;;
34497;SDS011;20744;50.938;7.286;2023-05-07T14:50:16;5.47;;;1.70;;
34497;SDS011;20744;50.938;7.286;2023-05-07T14:52:44;2.72;;;1.92;;
34497;SDS011;20744;50.938;7.286;2023-05-07T14:55:11;4.75;;;1.80;;
34497;SDS011;20744;50.938;7.286;2023-05-07T14:57:38;3.15;;;1.80;;